createdAt,value
2019-04-23T00:00:27.757Z,11.82
2019-04-23T00:01:41.657Z,11.88
2019-04-23T00:02:33.017Z,12.05
2019-04-23T00:03:38.530Z,12.35
2019-04-23T00:05:40.576Z,12.13
2019-04-23T00:06:41.764Z,12.12
2019-04-23T00:08:41.368Z,12.08
2019-04-23T00:09:38.265Z,12.08
2019-04-23T00:10:33.010Z,12.08
2019-04-23T00:11:39.234Z,12.19
2019-04-23T00:12:43.506Z,12.30
2019-04-23T00:13:36.959Z,12.18
2019-04-23T00:14:37.808Z,12.20
2019-04-23T00:15:40.034Z,12.28
2019-04-23T00:16:38.046Z,12.20
2019-04-23T00:17:41.776Z,12.12
2019-04-23T00:19:39.510Z,12.30
2019-04-23T00:20:33.709Z,12.37
2019-04-23T00:21:32.927Z,12.43
2019-04-23T00:22:43.002Z,12.39
2019-04-23T00:23:44.284Z,12.33
2019-04-23T00:24:56.592Z,12.29
2019-04-23T00:25:52.407Z,12.22
2019-04-23T00:27:42.219Z,12.20
2019-04-23T00:28:34.743Z,12.30
2019-04-23T00:29:45.784Z,12.32
2019-04-23T00:30:42.640Z,12.33
2019-04-23T00:31:36.028Z,12.32
2019-04-23T00:32:39.022Z,12.35
2019-04-23T00:33:34.062Z,12.30
2019-04-23T00:34:41.209Z,12.32
2019-04-23T00:35:38.168Z,12.36
2019-04-23T00:36:37.339Z,12.29
2019-04-23T00:37:35.138Z,12.30
2019-04-23T00:38:38.204Z,12.20
2019-04-23T00:39:40.580Z,12.22
2019-04-23T00:40:38.810Z,12.22
2019-04-23T00:42:36.411Z,12.20
2019-04-23T00:43:32.404Z,12.09
2019-04-23T00:46:34.807Z,12.08
2019-04-23T00:47:37.763Z,12.16
2019-04-23T00:48:42.534Z,12.12
2019-04-23T00:49:39.552Z,12.03
2019-04-23T00:50:44.581Z,12.06
2019-04-23T00:51:36.143Z,12.12
2019-04-23T00:52:38.666Z,12.15
2019-04-23T00:53:32.309Z,12.16
2019-04-23T00:54:39.020Z,12.12
2019-04-23T00:55:34.961Z,12.19
2019-04-23T00:56:44.316Z,12.20
2019-04-23T00:57:35.238Z,12.18
2019-04-23T00:58:41.010Z,12.19
2019-04-23T01:00:41.045Z,12.23
2019-04-23T01:01:42.351Z,12.16
2019-04-23T01:03:29.204Z,12.16
2019-04-23T01:04:39.468Z,12.19
2019-04-23T01:05:35.016Z,12.16
2019-04-23T01:06:28.647Z,12.15
2019-04-23T01:07:37.936Z,12.12
2019-04-23T01:08:35.151Z,12.16
2019-04-23T01:09:38.484Z,12.13
2019-04-23T01:10:34.268Z,12.12
2019-04-23T01:11:30.253Z,12.06
2019-04-23T01:12:37.362Z,11.96
2019-04-23T01:13:42.474Z,12.02
2019-04-23T01:14:32.349Z,12.01
2019-04-23T01:15:38.602Z,12.01
2019-04-23T01:16:32.695Z,12.09
2019-04-23T01:18:46.678Z,12.15
2019-04-23T01:19:36.968Z,12.05
2019-04-23T01:20:43.785Z,11.95
2019-04-23T01:21:18.019Z,11.95
2019-04-23T01:22:16.684Z,12.11
2019-04-23T01:23:20.495Z,12.03
2019-04-23T01:24:20.029Z,11.95
2019-04-23T01:25:24.334Z,11.98
2019-04-23T01:26:34.177Z,11.96
2019-04-23T01:27:38.883Z,12.03
2019-04-23T01:29:42.300Z,11.99
2019-04-23T01:30:40.325Z,11.96
2019-04-23T01:31:40.899Z,11.91
2019-04-23T01:32:36.343Z,11.88
2019-04-23T01:33:44.527Z,12.03
2019-04-23T01:34:38.545Z,12.02
2019-04-23T01:35:39.432Z,12.02
2019-04-23T01:36:35.388Z,11.93
2019-04-23T01:38:45.314Z,11.89
2019-04-23T01:39:43.670Z,11.86
2019-04-23T01:41:33.157Z,11.86
2019-04-23T01:42:35.381Z,11.93
2019-04-23T01:43:40.874Z,11.84
2019-04-23T01:44:41.913Z,11.84
2019-04-23T01:45:29.471Z,11.84
2019-04-23T01:46:41.499Z,11.77
2019-04-23T01:47:44.985Z,11.75
2019-04-23T01:49:44.356Z,11.71
2019-04-23T01:50:36.240Z,11.80
2019-04-23T01:51:45.964Z,11.85
2019-04-23T01:52:45.393Z,11.85
2019-04-23T01:53:45.085Z,11.77
2019-04-23T01:55:32.791Z,11.75
2019-04-23T01:56:32.999Z,11.77
2019-04-23T01:58:43.755Z,11.72
2019-04-23T02:00:40.542Z,11.70
2019-04-23T02:03:40.944Z,11.78
2019-04-23T02:04:42.802Z,11.78
2019-04-23T02:05:41.045Z,11.86
2019-04-23T02:06:31.197Z,11.74
2019-04-23T02:07:35.390Z,11.80
2019-04-23T02:08:31.668Z,11.74
2019-04-23T02:10:39.065Z,11.68
2019-04-23T02:14:41.392Z,11.81
2019-04-23T02:15:40.726Z,11.84
2019-04-23T02:16:41.987Z,11.84
2019-04-23T02:17:44.122Z,11.75
2019-04-23T02:18:41.354Z,11.74
2019-04-23T02:19:45.593Z,11.75
2019-04-23T02:20:42.612Z,11.75
2019-04-23T02:21:45.047Z,11.72
2019-04-23T02:25:39.243Z,11.67
2019-04-23T02:26:43.327Z,11.64
2019-04-23T02:27:41.894Z,11.54
2019-04-23T02:28:45.893Z,11.49
2019-04-23T02:29:51.032Z,11.46
2019-04-23T02:30:50.485Z,11.51
2019-04-23T02:32:59.041Z,11.63
2019-04-23T02:34:51.092Z,11.55
2019-04-23T02:37:44.900Z,11.46
2019-04-23T02:38:49.526Z,11.46
2019-04-23T02:40:46.348Z,11.44
2019-04-23T02:43:00.378Z,11.46
2019-04-23T02:43:31.977Z,11.37
2019-04-23T02:44:44.693Z,11.39
2019-04-23T02:45:56.157Z,11.50
2019-04-23T02:46:51.479Z,11.58
2019-04-23T02:47:52.320Z,11.50
2019-04-23T02:48:43.620Z,11.40
2019-04-23T02:49:53.880Z,11.44
2019-04-23T02:50:37.559Z,11.49
2019-04-23T02:52:46.852Z,11.44
2019-04-23T02:54:49.889Z,11.37
2019-04-23T02:55:48.338Z,11.42
2019-04-23T02:56:37.233Z,11.42
2019-04-23T02:57:49.862Z,11.49
2019-04-23T02:58:52.005Z,11.50
2019-04-23T03:01:29.662Z,11.37
2019-04-23T03:04:49.701Z,11.37
2019-04-23T03:05:48.967Z,11.44
2019-04-23T03:06:37.850Z,11.39
2019-04-23T03:07:38.794Z,11.37
2019-04-23T03:08:46.224Z,11.36
2019-04-23T03:09:35.865Z,11.31
2019-04-23T03:10:50.737Z,11.31
2019-04-23T03:11:47.702Z,11.43
2019-04-23T03:13:53.300Z,11.31
2019-04-23T03:14:48.708Z,11.25
2019-04-23T03:16:53.089Z,11.39
2019-04-23T03:17:57.262Z,11.34
2019-04-23T03:19:45.199Z,11.40
2019-04-23T03:20:57.192Z,11.27
2019-04-23T03:23:41.533Z,11.29
2019-04-23T03:25:44.537Z,11.25
2019-04-23T03:27:40.419Z,11.26
2019-04-23T03:28:42.594Z,11.25
2019-04-23T03:31:40.473Z,11.27
2019-04-23T03:37:44.590Z,11.19
2019-04-23T03:38:48.108Z,11.09
2019-04-23T03:39:56.422Z,11.16
2019-04-23T03:41:47.803Z,11.19
2019-04-23T03:42:42.177Z,11.26
2019-04-23T03:45:58.527Z,11.12
2019-04-23T03:46:41.470Z,11.12
2019-04-23T03:49:54.417Z,11.07
2019-04-23T03:50:35.160Z,11.07
2019-04-23T03:51:51.009Z,11.07
2019-04-23T03:52:44.143Z,11.12
2019-04-23T03:53:42.685Z,11.17
2019-04-23T03:54:43.177Z,11.19
2019-04-23T03:57:02.895Z,11.16
2019-04-23T03:57:29.832Z,11.12
2019-04-23T03:58:46.749Z,11.06
2019-04-23T03:59:54.537Z,11.09
2019-04-23T04:01:55.679Z,11.06
2019-04-23T04:04:36.323Z,11.03
2019-04-23T04:06:42.574Z,10.99
2019-04-23T04:07:57.353Z,10.96
2019-04-23T04:09:47.137Z,10.99
2019-04-23T04:10:51.722Z,10.99
2019-04-23T04:11:26.948Z,10.92
2019-04-23T04:12:45.361Z,11.02
2019-04-23T04:13:50.249Z,11.07
2019-04-23T04:14:37.955Z,11.05
2019-04-23T04:18:54.010Z,11.06
2019-04-23T04:19:46.558Z,11.05
2019-04-23T04:20:39.072Z,11.15
2019-04-23T04:21:47.449Z,11.02
2019-04-23T04:22:58.989Z,10.96
2019-04-23T04:23:50.973Z,10.95
2019-04-23T04:25:38.993Z,11.07
2019-04-23T04:27:44.836Z,11.13
2019-04-23T04:30:47.966Z,11.10
2019-04-23T04:31:50.283Z,11.06
2019-04-23T04:32:56.299Z,11.13
2019-04-23T04:35:06.671Z,11.17
2019-04-23T04:35:46.431Z,11.17
2019-04-23T04:36:44.566Z,11.05
2019-04-23T04:37:50.956Z,11.09
2019-04-23T04:39:52.211Z,11.12
2019-04-23T04:40:36.260Z,11.09
2019-04-23T04:41:56.725Z,11.13
2019-04-23T04:42:54.120Z,11.17
2019-04-23T04:44:45.944Z,11.23
2019-04-23T04:46:38.457Z,11.25
2019-04-23T04:47:44.378Z,11.26
2019-04-23T04:48:48.565Z,11.31
2019-04-23T04:49:41.046Z,11.33
2019-04-23T04:51:57.576Z,11.27
2019-04-23T04:52:40.942Z,11.42
2019-04-23T04:54:28.573Z,11.39
2019-04-23T04:55:35.507Z,11.43
2019-04-23T04:56:33.980Z,11.43
2019-04-23T04:58:52.548Z,11.53
2019-04-23T04:59:45.338Z,11.55
2019-04-23T05:01:35.999Z,11.54
2019-04-23T05:03:29.025Z,11.64
2019-04-23T05:04:42.086Z,11.63
2019-04-23T05:06:04.765Z,11.61
2019-04-23T05:06:43.540Z,11.68
2019-04-23T05:07:47.215Z,11.68
2019-04-23T05:08:36.433Z,11.68
2019-04-23T05:09:54.531Z,11.68
2019-04-23T05:10:51.098Z,11.71
2019-04-23T05:11:50.183Z,11.74
2019-04-23T05:12:27.219Z,11.74
2019-04-23T05:14:43.351Z,11.77
2019-04-23T05:15:44.136Z,11.80
2019-04-23T05:16:32.969Z,11.85
2019-04-23T05:18:43.873Z,11.91
2019-04-23T05:19:34.860Z,11.93
2019-04-23T05:20:36.447Z,11.92
2019-04-23T05:22:38.268Z,11.98
2019-04-23T05:24:39.480Z,12.02
2019-04-23T05:25:44.248Z,12.01
2019-04-23T05:26:29.018Z,12.05
2019-04-23T05:27:36.326Z,12.03
2019-04-23T05:28:38.235Z,12.09
2019-04-23T05:29:35.819Z,12.15
2019-04-23T05:30:44.241Z,12.18
2019-04-23T05:31:32.356Z,12.19
2019-04-23T05:32:40.932Z,12.23
2019-04-23T05:33:46.184Z,12.26
2019-04-23T05:34:39.690Z,12.30
2019-04-23T05:36:05.858Z,12.32
2019-04-23T05:36:45.268Z,12.37
2019-04-23T05:37:58.221Z,12.39
2019-04-23T05:39:33.633Z,12.43
2019-04-23T05:40:44.784Z,12.43
2019-04-23T05:41:39.736Z,12.46
2019-04-23T05:43:32.129Z,12.51
2019-04-23T05:44:42.819Z,12.54
2019-04-23T05:45:39.745Z,12.54
2019-04-23T05:46:32.682Z,12.56
2019-04-23T05:47:41.185Z,12.63
2019-04-23T05:50:50.427Z,12.67
2019-04-23T05:51:50.218Z,12.71
2019-04-23T05:52:45.655Z,12.74
2019-04-23T05:54:49.525Z,12.81
2019-04-23T05:55:33.848Z,12.87
2019-04-23T05:58:43.487Z,12.89
2019-04-23T05:59:41.402Z,12.96
2019-04-23T06:00:44.766Z,12.94
2019-04-23T06:01:53.627Z,12.96
2019-04-23T06:02:47.944Z,13.05
2019-04-23T06:03:48.689Z,13.08
2019-04-23T06:04:41.722Z,13.08
2019-04-23T06:05:46.025Z,13.15
2019-04-23T06:06:53.875Z,13.21
2019-04-23T06:07:35.148Z,13.22
2019-04-23T06:09:30.189Z,13.15
2019-04-23T06:10:47.274Z,13.16
2019-04-23T06:11:50.811Z,13.16
2019-04-23T06:12:31.183Z,13.21
2019-04-23T06:13:35.122Z,13.19
2019-04-23T06:14:45.527Z,13.23
2019-04-23T06:16:35.496Z,13.32
2019-04-23T06:18:43.836Z,13.34
2019-04-23T06:19:41.568Z,13.39
2019-04-23T06:20:48.456Z,13.36
2019-04-23T06:21:49.231Z,13.39
2019-04-23T06:22:41.971Z,13.39
2019-04-23T06:24:40.694Z,13.44
2019-04-23T06:26:39.186Z,13.51
2019-04-23T06:27:45.764Z,13.51
2019-04-23T06:28:38.597Z,13.46
2019-04-23T06:29:38.458Z,13.53
2019-04-23T06:30:46.599Z,13.54
2019-04-23T06:31:37.887Z,13.60
2019-04-23T06:33:32.036Z,13.60
2019-04-23T06:34:40.910Z,13.63
2019-04-23T06:36:32.004Z,13.67
2019-04-23T06:38:02.969Z,13.76
2019-04-23T06:39:41.119Z,13.74
2019-04-23T06:40:40.310Z,13.84
2019-04-23T06:41:43.046Z,13.84
2019-04-23T06:42:34.192Z,13.90
2019-04-23T06:43:31.877Z,13.91
2019-04-23T06:44:30.621Z,13.90
2019-04-23T06:45:37.182Z,13.84
2019-04-23T06:46:49.976Z,13.85
2019-04-23T06:47:42.656Z,13.95
2019-04-23T06:48:40.318Z,14.08
2019-04-23T06:49:43.587Z,14.16
2019-04-23T06:50:48.677Z,14.13
2019-04-23T06:51:34.460Z,14.22
2019-04-23T06:52:31.215Z,14.23
2019-04-23T06:53:42.619Z,14.25
2019-04-23T06:54:47.506Z,14.28
2019-04-23T06:55:41.901Z,14.28
2019-04-23T06:57:39.520Z,14.29
2019-04-23T06:59:41.065Z,14.36
2019-04-23T07:00:33.773Z,14.26
2019-04-23T07:01:44.464Z,14.39
2019-04-23T07:02:44.050Z,14.41
2019-04-23T07:03:43.043Z,14.47
2019-04-23T07:05:52.599Z,14.55
2019-04-23T07:06:42.514Z,14.52
2019-04-23T07:07:49.856Z,14.50
2019-04-23T07:08:42.815Z,14.62
2019-04-23T07:09:38.470Z,14.63
2019-04-23T07:11:38.925Z,14.68
2019-04-23T07:14:35.469Z,14.73
2019-04-23T07:15:44.596Z,14.84
2019-04-23T07:16:38.262Z,14.83
2019-04-23T07:17:28.785Z,14.74
2019-04-23T07:18:40.441Z,14.76
2019-04-23T07:19:40.715Z,14.98
2019-04-23T07:20:39.807Z,14.84
2019-04-23T07:21:33.251Z,14.92
2019-04-23T07:23:37.380Z,14.87
2019-04-23T07:24:32.621Z,14.91
2019-04-23T07:25:38.388Z,14.88
2019-04-23T07:27:29.580Z,14.80
2019-04-23T07:29:38.811Z,15.01
2019-04-23T07:30:32.719Z,15.15
2019-04-23T07:31:34.924Z,15.16
2019-04-23T07:32:42.957Z,15.15
2019-04-23T07:34:49.217Z,15.15
2019-04-23T07:36:40.427Z,15.29
2019-04-23T07:37:39.863Z,15.36
2019-04-23T07:38:47.057Z,15.46
2019-04-23T07:39:45.414Z,15.46
2019-04-23T07:40:40.268Z,15.39
2019-04-23T07:41:47.699Z,15.41
2019-04-23T07:42:41.403Z,15.56
2019-04-23T07:43:37.267Z,15.52
2019-04-23T07:45:42.477Z,15.62
2019-04-23T07:46:52.485Z,15.64
2019-04-23T07:47:39.867Z,15.62
2019-04-23T07:48:33.948Z,15.62
2019-04-23T07:49:48.692Z,15.66
2019-04-23T07:51:46.582Z,15.82
2019-04-23T07:52:49.273Z,15.84
2019-04-23T07:53:45.391Z,15.84
2019-04-23T07:54:43.908Z,15.82
2019-04-23T07:55:47.992Z,15.78
2019-04-23T07:56:41.688Z,15.77
2019-04-23T07:57:39.810Z,15.57
2019-04-23T07:58:28.390Z,15.62
2019-04-23T08:01:38.975Z,15.69
2019-04-23T08:02:33.345Z,15.73
2019-04-23T08:03:36.329Z,15.81
2019-04-23T08:04:53.967Z,15.73
2019-04-23T08:05:38.503Z,15.91
2019-04-23T08:06:45.810Z,15.94
2019-04-23T08:07:42.136Z,15.97
2019-04-23T08:09:47.581Z,16.11
2019-04-23T08:10:35.548Z,16.12
2019-04-23T08:11:44.123Z,16.12
2019-04-23T08:14:46.747Z,16.21
2019-04-23T08:15:34.541Z,16.21
2019-04-23T08:16:36.546Z,16.24
2019-04-23T08:18:48.998Z,16.19
2019-04-23T08:19:40.757Z,16.21
2019-04-23T08:20:34.783Z,16.29
2019-04-23T08:21:43.575Z,16.38
2019-04-23T08:23:48.538Z,16.68
2019-04-23T08:24:50.406Z,16.62
2019-04-23T08:26:46.992Z,16.57
2019-04-23T08:27:26.687Z,16.56
2019-04-23T08:29:27.492Z,16.33
2019-04-23T08:30:45.083Z,16.55
2019-04-23T08:31:42.738Z,16.74
2019-04-23T08:32:34.748Z,16.84
2019-04-23T08:34:42.860Z,16.83
2019-04-23T08:35:33.703Z,16.93
2019-04-23T08:37:53.835Z,17.11
2019-04-23T08:38:42.443Z,17.26
2019-04-23T08:39:42.820Z,17.24
2019-04-23T08:41:51.343Z,17.32
2019-04-23T08:42:35.188Z,17.48
2019-04-23T08:43:46.364Z,17.43
2019-04-23T08:44:44.062Z,17.24
2019-04-23T08:45:34.970Z,17.18
2019-04-23T08:46:50.701Z,17.04
2019-04-23T08:47:39.647Z,17.14
2019-04-23T08:51:51.280Z,17.46
2019-04-23T08:52:42.750Z,17.59
2019-04-23T08:53:47.390Z,17.56
2019-04-23T08:54:42.694Z,17.59
2019-04-23T08:55:38.284Z,17.77
2019-04-23T08:56:47.726Z,17.77
2019-04-23T08:57:36.463Z,17.84
2019-04-23T08:59:43.410Z,17.91
2019-04-23T09:01:55.312Z,17.83
2019-04-23T09:02:39.028Z,17.87
2019-04-23T09:03:38.745Z,17.97
2019-04-23T09:04:49.333Z,17.93
2019-04-23T09:05:44.604Z,17.91
2019-04-23T09:06:43.958Z,17.93
2019-04-23T09:07:44.705Z,17.89
2019-04-23T09:08:32.256Z,17.98
2019-04-23T09:10:33.736Z,18.08
2019-04-23T09:11:45.604Z,18.24
2019-04-23T09:12:41.500Z,18.33
2019-04-23T09:14:43.168Z,18.35
2019-04-23T09:15:38.685Z,17.98
2019-04-23T09:18:32.021Z,17.94
2019-04-23T09:19:52.984Z,17.94
2019-04-23T09:20:30.393Z,17.94
2019-04-23T09:21:39.729Z,17.96
2019-04-23T09:22:37.157Z,17.90
2019-04-23T09:23:46.496Z,17.86
2019-04-23T09:24:46.695Z,17.87
2019-04-23T09:25:34.412Z,17.94
2019-04-23T09:26:32.581Z,18.00
2019-04-23T09:27:39.533Z,18.22
2019-04-23T09:28:44.588Z,18.29
2019-04-23T09:29:51.224Z,18.27
2019-04-23T09:32:34.718Z,18.10
2019-04-23T09:34:33.527Z,18.03
2019-04-23T09:35:35.464Z,18.03
2019-04-23T09:36:33.491Z,18.10
2019-04-23T09:37:46.996Z,18.10
2019-04-23T09:38:44.480Z,18.36
2019-04-23T09:40:54.211Z,18.15
2019-04-23T09:41:37.046Z,18.35
2019-04-23T09:43:45.056Z,18.54
2019-04-23T09:45:33.537Z,18.39
2019-04-23T09:47:36.946Z,18.38
2019-04-23T09:49:39.256Z,18.58
2019-04-23T09:50:36.333Z,18.73
2019-04-23T09:51:43.831Z,18.75
2019-04-23T09:53:39.770Z,18.73
2019-04-23T09:54:47.495Z,18.82
2019-04-23T09:55:33.256Z,18.75
2019-04-23T09:56:40.852Z,18.75
2019-04-23T09:57:48.390Z,18.94
2019-04-23T09:58:41.309Z,19.07
2019-04-23T09:59:42.842Z,18.86
2019-04-23T10:00:40.508Z,18.84
2019-04-23T10:01:34.281Z,18.86
2019-04-23T10:02:33.712Z,18.91
2019-04-23T10:03:32.818Z,18.90
2019-04-23T10:04:30.859Z,18.82
2019-04-23T10:05:28.653Z,18.94
2019-04-23T10:06:20.747Z,18.82
2019-04-23T10:07:26.894Z,18.80
2019-04-23T10:08:21.571Z,18.80
2019-04-23T10:09:18.377Z,19.03
2019-04-23T10:10:16.529Z,19.04
2019-04-23T10:11:18.153Z,19.05
2019-04-23T10:12:17.618Z,19.21
2019-04-23T10:13:17.944Z,19.32
2019-04-23T10:14:16.709Z,19.30
2019-04-23T10:15:24.121Z,19.31
2019-04-23T10:16:19.299Z,19.44
2019-04-23T10:17:17.957Z,19.59
2019-04-23T10:18:16.408Z,19.59
2019-04-23T10:19:17.139Z,19.51
2019-04-23T10:20:17.993Z,19.30
2019-04-23T10:21:17.441Z,19.46
2019-04-23T10:22:17.373Z,19.56
2019-04-23T10:23:16.732Z,19.51
2019-04-23T10:24:17.071Z,19.76
2019-04-23T10:25:17.142Z,19.79
2019-04-23T10:26:16.577Z,19.79
2019-04-23T10:27:17.075Z,19.96
2019-04-23T10:28:18.665Z,19.91
2019-04-23T10:29:16.329Z,19.99
2019-04-23T10:30:17.625Z,19.90
2019-04-23T10:31:16.691Z,19.89
2019-04-23T10:32:17.642Z,19.83
2019-04-23T10:33:17.024Z,19.66
2019-04-23T10:34:16.999Z,19.63
2019-04-23T10:35:25.488Z,19.69
2019-04-23T10:36:19.832Z,19.89
2019-04-23T10:37:24.975Z,19.80
2019-04-23T10:38:18.566Z,19.89
2019-04-23T10:39:21.992Z,19.93
2019-04-23T10:40:21.204Z,19.99
2019-04-23T10:41:18.112Z,19.99
2019-04-23T10:42:18.124Z,19.91
2019-04-23T10:43:17.123Z,19.74
2019-04-23T10:44:17.216Z,19.90
2019-04-23T10:45:28.617Z,20.17
2019-04-23T10:46:36.230Z,20.08
2019-04-23T10:47:44.520Z,19.99
2019-04-23T10:49:52.813Z,19.96
2019-04-23T10:50:45.881Z,20.16
2019-04-23T10:54:44.596Z,20.45
2019-04-23T10:56:44.658Z,20.23
2019-04-23T10:57:30.697Z,20.11
2019-04-23T10:58:38.174Z,20.32
2019-04-23T11:00:44.656Z,20.37
2019-04-23T11:01:35.643Z,20.45
2019-04-23T11:02:47.155Z,20.66
2019-04-23T11:03:56.081Z,20.32
2019-04-23T11:04:53.642Z,20.49
2019-04-23T11:05:49.732Z,20.59
2019-04-23T11:06:44.935Z,20.69
2019-04-23T11:07:33.766Z,20.84
2019-04-23T11:08:40.358Z,21.13
2019-04-23T11:10:49.397Z,20.76
2019-04-23T11:11:44.423Z,20.51
2019-04-23T11:13:44.747Z,20.28
2019-04-23T11:14:30.538Z,20.63
2019-04-23T11:15:43.581Z,20.62
2019-04-23T11:18:56.533Z,20.68
2019-04-23T11:19:48.946Z,20.94
2019-04-23T11:21:32.632Z,20.98
2019-04-23T11:22:44.819Z,21.09
2019-04-23T11:25:42.441Z,20.87
2019-04-23T11:26:33.967Z,20.90
2019-04-23T11:27:34.861Z,21.09
2019-04-23T11:30:40.481Z,20.65
2019-04-23T11:31:52.006Z,20.62
2019-04-23T11:32:53.538Z,20.89
2019-04-23T11:33:37.769Z,20.55
2019-04-23T11:35:03.065Z,20.90
2019-04-23T11:35:36.270Z,20.90
2019-04-23T11:36:51.924Z,20.79
2019-04-23T11:37:40.661Z,21.02
2019-04-23T11:38:52.152Z,21.09
2019-04-23T11:39:43.995Z,21.11
2019-04-23T11:40:36.552Z,21.23
2019-04-23T11:44:45.560Z,20.98
2019-04-23T11:45:53.456Z,20.75
2019-04-23T11:46:53.097Z,20.78
2019-04-23T11:49:51.989Z,21.07
2019-04-23T11:51:18.346Z,21.16
2019-04-23T11:52:48.175Z,20.81
2019-04-23T11:54:35.262Z,21.20
2019-04-23T11:55:44.474Z,21.19
2019-04-23T11:56:50.842Z,21.24
2019-04-23T11:57:58.850Z,21.38
2019-04-23T11:58:35.573Z,21.61
2019-04-23T11:59:43.336Z,21.62
2019-04-23T12:01:52.133Z,20.96
2019-04-23T12:02:38.184Z,20.64
2019-04-23T12:03:55.647Z,21.14
2019-04-23T12:05:47.984Z,21.60
2019-04-23T12:06:45.507Z,21.53
2019-04-23T12:07:39.127Z,21.53
2019-04-23T12:08:42.912Z,21.68
2019-04-23T12:09:46.255Z,21.48
2019-04-23T12:11:52.643Z,21.43
2019-04-23T12:12:39.207Z,21.61
2019-04-23T12:13:35.185Z,21.45
2019-04-23T12:14:44.850Z,21.53
2019-04-23T12:15:45.977Z,21.69
2019-04-23T12:17:46.567Z,21.57
2019-04-23T12:18:51.269Z,21.16
2019-04-23T12:19:55.506Z,21.45
2019-04-23T12:21:52.136Z,21.41
2019-04-23T12:22:35.263Z,21.26
2019-04-23T12:23:40.372Z,21.23
2019-04-23T12:25:44.117Z,21.51
2019-04-23T12:26:49.066Z,21.65
2019-04-23T12:27:30.985Z,21.82
2019-04-23T12:28:43.713Z,22.00
2019-04-23T12:29:46.002Z,21.92
2019-04-23T12:30:44.817Z,21.85
2019-04-23T12:31:45.071Z,21.40
2019-04-23T12:32:53.412Z,21.65
2019-04-23T12:34:52.155Z,21.79
2019-04-23T12:35:27.188Z,21.65
2019-04-23T12:36:36.839Z,21.78
2019-04-23T12:38:38.259Z,21.73
2019-04-23T12:39:49.210Z,21.69
2019-04-23T12:40:30.645Z,21.93
2019-04-23T12:41:43.151Z,21.99
2019-04-23T12:42:53.485Z,21.65
2019-04-23T12:43:38.313Z,21.27
2019-04-23T12:44:45.511Z,21.31
2019-04-23T12:45:30.023Z,21.43
2019-04-23T12:46:44.926Z,21.48
2019-04-23T12:47:43.279Z,21.60
2019-04-23T12:48:46.325Z,21.51
2019-04-23T12:50:48.115Z,21.53
2019-04-23T12:51:46.495Z,21.50
2019-04-23T12:52:46.449Z,21.60
2019-04-23T12:53:39.633Z,21.81
2019-04-23T12:55:35.721Z,21.54
2019-04-23T12:56:56.681Z,21.37
2019-04-23T12:57:44.684Z,21.44
2019-04-23T12:58:27.490Z,21.23
2019-04-23T12:59:36.263Z,21.33
2019-04-23T13:00:30.640Z,21.36
2019-04-23T13:01:48.719Z,21.57
2019-04-23T13:03:39.009Z,21.37
2019-04-23T13:04:48.270Z,21.51
2019-04-23T13:05:35.534Z,21.61
2019-04-23T13:06:43.912Z,21.79
2019-04-23T13:08:42.767Z,21.95
2019-04-23T13:11:49.495Z,21.60
2019-04-23T13:13:01.204Z,21.61
2019-04-23T13:13:45.616Z,21.43
2019-04-23T13:14:48.832Z,21.62
2019-04-23T13:15:39.685Z,21.73
2019-04-23T13:17:49.867Z,21.85
2019-04-23T13:19:39.292Z,21.68
2019-04-23T13:20:36.466Z,21.91
2019-04-23T13:22:47.250Z,21.79
2019-04-23T13:23:38.751Z,21.76
2019-04-23T13:24:48.253Z,21.95
2019-04-23T13:26:44.309Z,21.71
2019-04-23T13:27:37.527Z,21.66
2019-04-23T13:30:45.904Z,21.51
2019-04-23T13:31:39.280Z,21.50
2019-04-23T13:32:45.890Z,21.68
2019-04-23T13:33:38.765Z,21.98
2019-04-23T13:34:39.705Z,22.16
2019-04-23T13:35:52.651Z,21.93
2019-04-23T13:36:43.227Z,21.72
2019-04-23T13:38:39.916Z,21.68
2019-04-23T13:39:43.439Z,22.07
2019-04-23T13:40:43.728Z,22.02
2019-04-23T13:41:38.478Z,21.79
2019-04-23T13:43:42.156Z,21.93
2019-04-23T13:44:45.385Z,21.85
2019-04-23T13:45:58.820Z,21.98
2019-04-23T13:46:39.526Z,22.03
2019-04-23T13:47:52.695Z,22.09
2019-04-23T13:48:29.768Z,22.02
2019-04-23T13:49:50.620Z,22.07
2019-04-23T13:50:49.388Z,22.23
2019-04-23T13:51:39.214Z,22.27
2019-04-23T13:53:07.019Z,22.26
2019-04-23T13:53:44.847Z,22.23
2019-04-23T13:54:59.315Z,22.23
2019-04-23T13:58:02.127Z,22.02
2019-04-23T13:58:42.917Z,22.24
2019-04-23T13:59:38.686Z,22.44
2019-04-23T14:00:51.750Z,22.57
2019-04-23T14:02:42.210Z,22.50
2019-04-23T14:03:44.526Z,22.41
2019-04-23T14:04:38.055Z,22.35
2019-04-23T14:05:32.820Z,22.51
2019-04-23T14:06:41.550Z,22.26
2019-04-23T14:07:47.734Z,22.35
2019-04-23T14:09:53.901Z,22.44
2019-04-23T14:10:44.643Z,22.19
2019-04-23T14:11:30.564Z,22.24
2019-04-23T14:12:41.383Z,22.24
2019-04-23T14:13:43.839Z,22.19
2019-04-23T14:15:53.284Z,22.26
2019-04-23T14:16:47.705Z,22.24
2019-04-23T14:17:51.376Z,22.34
2019-04-23T14:19:44.804Z,22.41
2019-04-23T14:20:38.127Z,22.41
2019-04-23T14:21:30.136Z,22.38
2019-04-23T14:23:43.283Z,22.21
2019-04-23T14:24:52.905Z,22.12
2019-04-23T14:25:59.425Z,22.28
2019-04-23T14:26:37.844Z,22.09
2019-04-23T14:27:46.201Z,22.07
2019-04-23T14:29:47.317Z,22.13
2019-04-23T14:31:42.368Z,21.98
2019-04-23T14:32:45.212Z,21.96
2019-04-23T14:33:52.420Z,21.82
2019-04-23T14:34:53.856Z,21.99
2019-04-23T14:36:34.819Z,21.96
2019-04-23T14:37:50.407Z,21.95
2019-04-23T14:38:42.364Z,22.02
2019-04-23T14:39:45.177Z,21.88
2019-04-23T14:40:42.291Z,21.81
2019-04-23T14:41:42.193Z,21.82
2019-04-23T14:42:42.659Z,21.85
2019-04-23T14:43:48.461Z,21.64
2019-04-23T14:44:40.326Z,21.50
2019-04-23T14:46:40.187Z,21.50
2019-04-23T14:47:45.105Z,21.40
2019-04-23T14:48:36.252Z,21.50
2019-04-23T14:49:58.580Z,21.64
2019-04-23T14:50:48.630Z,21.50
2019-04-23T14:51:35.129Z,21.49
2019-04-23T14:52:47.613Z,21.59
2019-04-23T14:53:43.613Z,21.58
2019-04-23T14:55:08.893Z,21.66
2019-04-23T14:56:44.397Z,21.41
2019-04-23T14:57:48.056Z,21.37
2019-04-23T14:58:41.853Z,21.31
2019-04-23T14:59:37.362Z,21.47
2019-04-23T15:00:52.390Z,21.33
2019-04-23T15:01:37.864Z,21.38
2019-04-23T15:02:51.382Z,21.31
2019-04-23T15:03:46.016Z,21.34
2019-04-23T15:04:47.114Z,21.29
2019-04-23T15:06:50.503Z,21.24
2019-04-23T15:07:41.942Z,21.20
2019-04-23T15:08:38.098Z,21.21
2019-04-23T15:09:32.192Z,21.18
2019-04-23T15:10:55.243Z,21.09
2019-04-23T15:12:44.331Z,21.09
2019-04-23T15:13:44.321Z,21.09
2019-04-23T15:14:51.013Z,21.06
2019-04-23T15:15:28.755Z,21.06
2019-04-23T15:16:42.936Z,21.04
2019-04-23T15:17:32.091Z,21.06
2019-04-23T15:18:43.847Z,21.06
2019-04-23T15:19:47.152Z,20.94
2019-04-23T15:20:45.942Z,20.92
2019-04-23T15:22:41.232Z,20.96
2019-04-23T15:24:48.381Z,20.90
2019-04-23T15:25:59.931Z,20.90
2019-04-23T15:28:19.655Z,20.80
2019-04-23T15:29:30.033Z,20.79
2019-04-23T15:30:45.672Z,20.86
2019-04-23T15:31:48.602Z,20.80
2019-04-23T15:33:52.970Z,20.73
2019-04-23T15:35:52.075Z,20.72
2019-04-23T15:36:40.304Z,20.75
2019-04-23T15:37:38.608Z,20.76
2019-04-23T15:38:49.130Z,20.75
2019-04-23T15:39:46.293Z,20.69
2019-04-23T15:40:40.578Z,20.73
2019-04-23T15:41:36.451Z,20.72
2019-04-23T15:42:50.631Z,20.68
2019-04-23T15:43:49.141Z,20.71
2019-04-23T15:45:44.254Z,20.71
2019-04-23T15:46:44.265Z,20.72
2019-04-23T15:47:47.867Z,20.66
2019-04-23T15:48:52.671Z,20.71
2019-04-23T15:49:33.992Z,20.69
2019-04-23T15:50:42.139Z,20.62
2019-04-23T15:52:51.289Z,20.69
2019-04-23T15:53:39.248Z,20.72
2019-04-23T15:54:46.967Z,20.75
2019-04-23T15:55:32.465Z,20.75
2019-04-23T15:57:59.405Z,20.76
2019-04-23T15:58:52.459Z,20.75
2019-04-23T16:01:35.898Z,20.75
2019-04-23T16:02:16.397Z,20.76
2019-04-23T16:03:18.071Z,20.69
2019-04-23T16:04:19.283Z,20.72
2019-04-23T16:05:18.427Z,20.68
2019-04-23T16:06:21.166Z,20.69
2019-04-23T16:07:29.529Z,20.68
2019-04-23T16:08:44.962Z,20.59
2019-04-23T16:09:35.589Z,20.62
2019-04-23T16:10:35.916Z,20.63
2019-04-23T16:11:39.189Z,20.63
2019-04-23T16:14:47.672Z,20.51
2019-04-23T16:15:34.795Z,20.49
2019-04-23T16:17:39.546Z,20.46
2019-04-23T16:18:34.360Z,20.46
2019-04-23T16:19:27.733Z,20.35
2019-04-23T16:20:34.738Z,20.27
2019-04-23T16:21:53.300Z,20.31
2019-04-23T16:22:39.224Z,20.27
2019-04-23T16:23:39.767Z,20.24
2019-04-23T16:24:34.017Z,20.18
2019-04-23T16:25:34.107Z,20.14